Time,TemperatureF,DewpointF,PressureIn,WindDirection,WindDirectionDegrees,WindSpeedMPH,WindSpeedGustMPH,Humidity,HourlyPrecipIn,Conditions,Clouds,dailyrainin,SolarRadiationWatts/m^2,SoftwareType,DateUTC
2013-08-17 00:42:00,74.0,38.0,-100.00,SSE,147,6.0,11.0,27,0.00,,,0.00,0.000000,,2013-08-17 06:42:00,
2013-08-17 00:51:00,74.0,38.0,-100.00,SSE,147,6.0,11.0,27,0.00,,,0.00,0.000000,,2013-08-17 06:51:00,
2013-08-17 01:41:00,74.0,44.0,-100.00,SE,140,8.0,10.0,34,0.00,,,0.00,0.000000,,2013-08-17 07:41:00,
2013-08-17 01:52:00,74.0,44.0,-100.00,SE,140,8.0,10.0,34,0.00,,,0.00,0.000000,,2013-08-17 07:52:00,
2013-08-17 02:41:00,73.0,43.0,-100.00,SE,140,9.0,10.0,34,0.00,,,0.00,0.000000,,2013-08-17 08:41:00,
2013-08-17 02:52:00,73.0,43.0,-100.00,SE,140,9.0,10.0,34,0.00,,,0.00,0.000000,,2013-08-17 08:52:00,
2013-08-17 03:43:00,73.0,45.0,-100.00,SE,138,11.0,13.0,37,0.00,,,0.00,0.000000,,2013-08-17 09:43:00,
2013-08-17 03:53:00,73.0,45.0,-100.00,SE,138,11.0,13.0,37,0.00,,,0.00,0.000000,,2013-08-17 09:53:00,
2013-08-17 04:42:00,69.0,42.0,-100.00,SE,145,9.0,15.0,37,0.00,,,0.00,0.000000,,2013-08-17 10:42:00,
2013-08-17 04:52:00,69.0,42.0,-100.00,SE,145,9.0,15.0,37,0.00,,,0.00,0.000000,,2013-08-17 10:52:00,
2013-08-17 05:42:00,71.0,41.0,-100.00,SE,132,10.0,11.0,34,0.00,,,0.00,0.000000,,2013-08-17 11:42:00,
2013-08-17 05:52:00,71.0,41.0,-100.00,SE,132,10.0,11.0,34,0.00,,,0.00,0.000000,,2013-08-17 11:52:00,
2013-08-17 06:42:00,63.0,38.0,-100.00,SE,139,6.0,12.0,40,0.00,,,0.00,0.000000,,2013-08-17 12:42:00,
2013-08-17 06:51:00,63.0,38.0,-100.00,SE,139,6.0,12.0,40,0.00,,,0.00,0.000000,,2013-08-17 12:51:00,
2013-08-17 07:42:00,62.0,43.0,-100.00,ESE,119,3.0,9.0,49,0.00,,,0.00,17.000000,,2013-08-17 13:42:00,
2013-08-17 07:52:00,62.0,43.0,-100.00,ESE,119,3.0,9.0,49,0.00,,,0.00,17.000000,,2013-08-17 13:52:00,
2013-08-17 08:42:00,66.0,45.0,-100.00,SE,132,4.0,8.0,47,0.00,,,0.00,96.000000,,2013-08-17 14:42:00,
2013-08-17 08:52:00,66.0,45.0,-100.00,SE,132,4.0,8.0,47,0.00,,,0.00,96.000000,,2013-08-17 14:52:00,
2013-08-17 09:43:00,75.0,42.0,-100.00,NNW,327,3.0,5.0,31,0.00,,,0.00,271.000000,,2013-08-17 15:43:00,
2013-08-17 09:53:00,75.0,42.0,-100.00,NNW,327,3.0,5.0,31,0.00,,,0.00,271.000000,,2013-08-17 15:53:00,
2013-08-17 10:53:00,80.0,47.0,-100.00,NW,321,5.0,8.0,31,0.00,,,0.00,384.000000,,2013-08-17 16:53:00,
2013-08-17 11:42:00,82.0,47.0,-100.00,NNW,337,6.0,14.0,29,0.00,,,0.00,558.000000,,2013-08-17 17:42:00,
2013-08-17 11:52:00,82.0,47.0,-100.00,NNW,337,6.0,14.0,29,0.00,,,0.00,558.000000,,2013-08-17 17:52:00,
2013-08-17 12:21:00,84.0,48.0,-100.00,NNW,347,7.0,13.0,29,0.00,,,0.00,599.000000,,2013-08-17 18:21:00,
2013-08-17 12:32:00,84.0,48.0,-100.00,NNW,347,7.0,13.0,29,0.00,,,0.00,599.000000,,2013-08-17 18:32:00,
2013-08-17 12:42:00,84.0,48.0,-100.00,NNW,347,7.0,13.0,29,0.00,,,0.00,599.000000,,2013-08-17 18:42:00,
2013-08-17 12:52:00,84.0,48.0,-100.00,NNW,347,7.0,13.0,29,0.00,,,0.00,599.000000,,2013-08-17 18:52:00,
2013-08-17 13:41:00,87.0,48.0,-100.00,North,350,8.0,13.0,26,0.00,,,0.00,719.000000,,2013-08-17 19:41:00,
2013-08-17 13:52:00,87.0,48.0,-100.00,North,350,8.0,13.0,26,0.00,,,0.00,719.000000,,2013-08-17 19:52:00,
2013-08-17 14:41:00,89.0,49.0,-100.00,NW,322,7.0,12.0,25,0.00,,,0.00,601.000000,,2013-08-17 20:41:00,
2013-08-17 14:52:00,89.0,49.0,-100.00,NW,322,7.0,12.0,25,0.00,,,0.00,601.000000,,2013-08-17 20:52:00,
2013-08-17 15:21:00,93.0,47.0,-100.00,North,10,5.0,13.0,21,0.00,,,0.00,755.000000,,2013-08-17 21:21:00,
2013-08-17 15:33:00,93.0,47.0,-100.00,North,10,5.0,13.0,21,0.00,,,0.00,755.000000,,2013-08-17 21:33:00,
2013-08-17 15:42:00,93.0,47.0,-100.00,North,10,5.0,13.0,21,0.00,,,0.00,755.000000,,2013-08-17 21:42:00,
2013-08-17 15:53:00,93.0,47.0,-100.00,North,10,5.0,13.0,21,0.00,,,0.00,755.000000,,2013-08-17 21:53:00,
2013-08-17 16:42:00,94.0,45.0,-100.00,NNE,27,6.0,13.0,19,0.00,,,0.00,645.000000,,2013-08-17 22:42:00,
2013-08-17 16:52:00,94.0,45.0,-100.00,NNE,27,6.0,13.0,19,0.00,,,0.00,645.000000,,2013-08-17 22:52:00,
2013-08-17 17:22:00,94.0,44.0,-100.00,North,11,7.0,14.0,18,0.00,,,0.00,504.000000,,2013-08-17 23:22:00,
2013-08-17 17:32:00,94.0,44.0,-100.00,North,11,7.0,14.0,18,0.00,,,0.00,504.000000,,2013-08-17 23:32:00,
2013-08-17 17:42:00,94.0,44.0,-100.00,North,11,7.0,14.0,18,0.00,,,0.00,504.000000,,2013-08-17 23:42:00,
2013-08-17 17:51:00,94.0,44.0,-100.00,North,11,7.0,14.0,18,0.00,,,0.00,504.000000,,2013-08-17 23:51:00,
2013-08-17 18:21:00,92.0,44.0,-100.00,NE,35,7.0,14.0,19,0.00,,,0.00,333.000000,,2013-08-18 00:21:00,
2013-08-17 18:32:00,92.0,44.0,-100.00,NE,35,7.0,14.0,19,0.00,,,0.00,333.000000,,2013-08-18 00:32:00,
2013-08-17 18:41:00,92.0,44.0,-100.00,NE,35,7.0,14.0,19,0.00,,,0.00,333.000000,,2013-08-18 00:41:00,
2013-08-17 18:52:00,92.0,44.0,-100.00,NE,35,7.0,14.0,19,0.00,,,0.00,333.000000,,2013-08-18 00:52:00,
2013-08-17 19:41:00,90.0,46.0,-100.00,NE,39,5.0,12.0,22,0.00,,,0.00,189.000000,,2013-08-18 01:41:00,
2013-08-17 19:52:00,90.0,46.0,-100.00,NE,39,5.0,12.0,22,0.00,,,0.00,189.000000,,2013-08-18 01:52:00,
2013-08-17 20:41:00,84.0,45.0,-100.00,ENE,73,6.0,9.0,26,0.00,,,0.00,62.000000,,2013-08-18 02:41:00,
2013-08-17 20:52:00,84.0,45.0,-100.00,ENE,73,6.0,9.0,26,0.00,,,0.00,62.000000,,2013-08-18 02:52:00,
2013-08-17 21:43:00,82.0,47.0,-100.00,East,82,9.0,12.0,30,0.00,,,0.00,3.000000,,2013-08-18 03:43:00,
2013-08-17 21:53:00,82.0,47.0,-100.00,East,82,9.0,12.0,30,0.00,,,0.00,3.000000,,2013-08-18 03:53:00,
2013-08-17 22:42:00,76.0,45.0,-100.00,ESE,117,5.0,13.0,33,0.00,,,0.00,0.000000,,2013-08-18 04:42:00,
2013-08-17 22:53:00,76.0,45.0,-100.00,ESE,117,5.0,13.0,33,0.00,,,0.00,0.000000,,2013-08-18 04:53:00,
2013-08-17 23:42:00,72.0,44.0,-100.00,SE,146,6.0,13.0,37,0.00,,,0.00,0.000000,,2013-08-18 05:42:00,
2013-08-17 23:52:00,72.0,44.0,-100.00,SE,146,6.0,13.0,37,0.00,,,0.00,0.000000,,2013-08-18 05:52:00,